Time;durP1;ratioP1;P1;durP2;ratioP2;P2;SDS_P1;SDS_P2;PMS_P1;PMS_P2;Temp;Humidity;BMP_temperature;BMP_pressure;BME280_temperature;BME280_humidity;BME280_pressure;Samples;Min_cycle;Max_cycle;Signal;HPM_P1;HPM_P2
2022/11/17 00:01:19;;;;;;;;;;;;;;;13.85;58.90;98094.38;4479423;32;34256;-64
2022/11/17 00:03:46;;;;;;;;;;;;;;;13.85;58.83;98092.50;4480241;32;35127;-64
2022/11/17 00:06:14;;;;;;;;;;;;;;;13.93;58.47;98097.88;4466049;32;32574;-64
2022/11/17 00:08:41;;;;;;;;;;;;;;;13.58;59.72;98098.31;4458496;32;34004;-65
2022/11/17 00:11:09;;;;;;;;;;;;;;;13.70;59.20;98097.78;4473520;32;34367;-64
2022/11/17 00:16:22;;;;;;;;;;;;;;;13.69;59.77;98100.66;4482206;32;34020;-65
2022/11/17 00:21:37;;;;;;;;;;;;;;;13.66;59.56;98092.94;4455611;32;33968;-64
2022/11/17 00:24:05;;;;;;;;;;;;;;;13.21;60.64;98087.16;4470461;32;34447;-64
2022/11/17 00:26:33;;;;;;;;;;;;;;;13.51;60.02;98082.06;4470970;32;32525;-63
2022/11/17 00:29:03;;;;;;;;;;;;;;;13.69;59.33;98087.22;4479745;32;34373;-63
2022/11/17 00:34:21;;;;;;;;;;;;;;;13.56;59.83;98087.75;4476992;32;33164;-65
2022/11/17 00:36:52;;;;;;;;;;;;;;;13.59;59.71;98092.78;4481176;32;33902;-65
2022/11/17 00:39:20;;;;;;;;;;;;;;;13.47;60.09;98086.94;4470402;32;37326;-65
2022/11/17 00:41:47;;;;;;;;;;;;;;;13.75;59.28;98084.66;4474795;32;35190;-65
2022/11/17 00:44:14;;;;;;;;;;;;;;;13.66;59.21;98083.00;4473470;32;31874;-64
2022/11/17 00:46:44;;;;;;;;;;;;;;;13.34;59.99;98083.16;4470312;32;33976;-64
2022/11/17 00:49:11;;;;;;;;;;;;;;;13.79;59.18;98097.75;4474419;32;34276;-64
2022/11/17 00:51:38;;;;;;;;;;;;;;;13.83;58.96;98086.47;4475577;32;34479;-65
2022/11/17 00:54:06;;;;;;;;;;;;;;;13.61;59.48;98076.47;4470668;32;32958;-64
2022/11/17 00:56:34;;;;;;;;;;;;;;;13.62;59.50;98084.38;4468758;32;32834;-64
2022/11/17 00:59:01;;;;;;;;;;;;;;;13.20;60.63;98085.50;4477212;32;34802;-65
2022/11/17 01:01:28;;;;;;;;;;;;;;;13.22;60.67;98080.78;4475477;32;34169;-64
2022/11/17 01:04:04;;;;;;;;;;;;;;;13.52;59.55;98076.53;4476675;32;33851;-64
2022/11/17 01:06:35;;;;;;;;;;;;;;;13.32;60.34;98071.72;4471051;32;35031;-65
2022/11/17 01:09:03;;;;;;;;;;;;;;;12.93;61.41;98077.81;4476271;31;35095;-65
2022/11/17 01:11:31;;;;;;;;;;;;;;;13.14;60.95;98066.53;4482592;32;34154;-64
2022/11/17 01:13:59;;;;;;;;;;;;;;;13.39;60.12;98059.28;4478310;32;33420;-65
2022/11/17 01:16:26;;;;;;;;;;;;;;;12.95;61.39;98059.69;4468010;32;34391;-66
2022/11/17 01:18:54;;;;;;;;;;;;;;;12.66;62.56;98058.41;4475125;32;32453;-65
2022/11/17 01:21:22;;;;;;;;;;;;;;;13.03;61.06;98052.47;4475744;32;34246;-64
2022/11/17 01:23:50;;;;;;;;;;;;;;;12.96;61.50;98045.25;4474307;32;33619;-64
2022/11/17 01:26:19;;;;;;;;;;;;;;;12.94;61.46;98045.44;4468987;32;33990;-63
2022/11/17 01:28:47;;;;;;;;;;;;;;;12.93;61.36;98045.59;4475930;32;32891;-64
2022/11/17 01:31:18;;;;;;;;;;;;;;;12.95;61.22;98051.66;4482603;32;34419;-62
2022/11/17 01:33:45;;;;;;;;;;;;;;;12.40;63.27;98044.31;4479844;32;33130;-63
2022/11/17 01:36:14;;;;;;;;;;;;;;;12.72;62.17;98048.84;4476255;32;34154;-65
2022/11/17 01:38:41;;;;;;;;;;;;;;;12.42;62.82;98042.28;4475035;32;34433;-63
2022/11/17 01:41:13;;;;;;;;;;;;;;;12.22;63.94;98041.78;4474755;32;34259;-64
2022/11/17 01:43:42;;;;;;;;;;;;;;;12.48;63.11;98044.31;4475208;32;33370;-64
2022/11/17 01:46:14;;;;;;;;;;;;;;;12.43;63.30;98046.69;4471991;32;33901;-65
2022/11/17 01:48:42;;;;;;;;;;;;;;;12.20;63.92;98041.09;4460786;32;34090;-65
2022/11/17 01:51:10;;;;;;;;;;;;;;;12.30;63.53;98045.31;4459415;32;35438;-63
2022/11/17 01:53:38;;;;;;;;;;;;;;;12.58;63.02;98047.66;4466517;32;33495;-63
2022/11/17 01:56:06;;;;;;;;;;;;;;;12.32;63.46;98058.56;4464881;32;35374;-64
2022/11/17 01:58:35;;;;;;;;;;;;;;;12.41;63.28;98057.56;4473726;32;35122;-64
2022/11/17 02:01:02;;;;;;;;;;;;;;;12.09;64.53;98064.56;4464623;32;34297;-65
2022/11/17 02:03:31;;;;;;;;;;;;;;;12.21;63.83;98061.59;4476702;32;34464;-63
2022/11/17 02:06:01;;;;;;;;;;;;;;;12.05;64.42;98067.75;4454859;32;34281;-63
2022/11/17 02:08:29;;;;;;;;;;;;;;;12.06;64.35;98064.06;4457543;32;34056;-64
2022/11/17 02:10:56;;;;;;;;;;;;;;;12.14;64.20;98072.13;4465463;32;34573;-64
2022/11/17 02:13:24;;;;;;;;;;;;;;;12.14;63.94;98082.03;4468720;32;32144;-64
2022/11/17 02:15:51;;;;;;;;;;;;;;;11.99;64.63;98068.41;4460415;32;35017;-65
2022/11/17 02:18:19;;;;;;;;;;;;;;;12.12;64.08;98074.13;4479442;32;34027;-65
2022/11/17 02:20:58;;;;;;;;;;;;;;;11.46;66.77;98078.44;4470952;32;34136;-63
2022/11/17 02:23:36;;;;;;;;;;;;;;;11.76;65.46;98063.63;4460962;32;32996;-63
2022/11/17 02:26:21;;;;;;;;;;;;;;;11.59;65.61;98060.06;4465130;32;33799;-64
2022/11/17 02:29:09;;;;;;;;;;;;;;;11.88;65.20;98053.47;4462009;32;34208;-64
2022/11/17 02:31:39;;;;;;;;;;;;;;;11.61;66.41;98047.31;4468098;32;34445;-64
2022/11/17 02:34:45;;;;;;;;;;;;;;;11.91;65.11;98046.94;4466698;32;32147;-64
2022/11/17 02:37:24;;;;;;;;;;;;;;;11.75;65.45;98045.03;4402894;32;34168;-64
2022/11/17 02:39:59;;;;;;;;;;;;;;;11.87;64.79;98041.91;4400660;32;34174;-63
2022/11/17 02:45:19;;;;;;;;;;;;;;;12.20;63.74;98036.59;4467566;32;33419;-64
2022/11/17 02:47:47;;;;;;;;;;;;;;;12.31;63.28;98033.56;4464691;32;35776;-63
2022/11/17 02:50:14;;;;;;;;;;;;;;;12.13;63.58;98030.22;4463073;32;34406;-64
2022/11/17 02:52:41;;;;;;;;;;;;;;;12.31;62.82;98030.06;4467539;32;32784;-66
2022/11/17 02:55:09;;;;;;;;;;;;;;;12.23;63.15;98040.78;4458080;32;32480;-64
2022/11/17 02:57:37;;;;;;;;;;;;;;;12.32;62.67;98053.19;4476498;32;35342;-63
2022/11/17 03:00:06;;;;;;;;;;;;;;;12.03;63.99;98038.41;4469530;32;35357;-63
2022/11/17 03:02:49;;;;;;;;;;;;;;;12.46;62.13;98036.44;4476808;32;32755;-64
2022/11/17 03:05:22;;;;;;;;;;;;;;;12.39;61.78;98031.91;4469958;32;34321;-65
2022/11/17 03:07:55;;;;;;;;;;;;;;;11.93;63.19;98015.44;4458556;32;34334;-65
2022/11/17 03:10:46;;;;;;;;;;;;;;;11.78;63.68;98016.06;4477211;32;35741;-65
2022/11/17 03:13:16;;;;;;;;;;;;;;;12.20;62.06;98006.25;4472582;32;34703;-64
2022/11/17 03:15:54;;;;;;;;;;;;;;;12.22;62.34;98012.28;4474150;32;32336;-65
2022/11/17 03:18:34;;;;;;;;;;;;;;;12.01;62.80;98004.75;4470666;32;35501;-66
2022/11/17 03:21:09;;;;;;;;;;;;;;;12.16;62.14;98005.75;4468472;32;34214;-64
2022/11/17 03:23:48;;;;;;;;;;;;;;;12.09;62.36;98004.72;4465764;32;33841;-64
2022/11/17 03:26:17;;;;;;;;;;;;;;;12.06;62.54;97999.69;4478341;32;33690;-66
2022/11/17 03:28:45;;;;;;;;;;;;;;;12.10;62.79;97998.34;4457076;32;34172;-64
2022/11/17 03:31:12;;;;;;;;;;;;;;;11.80;64.25;97994.44;4462100;32;34259;-65
2022/11/17 03:33:39;;;;;;;;;;;;;;;12.16;63.18;97992.31;4454615;32;34530;-65
2022/11/17 03:36:18;;;;;;;;;;;;;;;12.20;63.02;97999.06;4476729;32;34544;-65
2022/11/17 03:38:47;;;;;;;;;;;;;;;12.34;62.71;98008.28;4482487;32;33052;-66
2022/11/17 03:41:14;;;;;;;;;;;;;;;11.87;64.48;98025.81;4476744;32;35025;-66
2022/11/17 03:43:42;;;;;;;;;;;;;;;11.91;64.68;98026.34;4470103;32;33841;-64
2022/11/17 03:46:09;;;;;;;;;;;;;;;11.46;65.38;98040.06;4467349;32;33121;-63
2022/11/17 03:48:39;;;;;;;;;;;;;;;11.31;65.29;98045.22;4472149;32;34484;-65
2022/11/17 03:51:08;;;;;;;;;;;;;;;11.46;64.96;98053.47;4479984;32;34130;-65
2022/11/17 03:53:35;;;;;;;;;;;;;;;11.75;63.20;98055.75;4464627;32;34784;-64
2022/11/17 03:56:22;;;;;;;;;;;;;;;11.97;62.31;98067.72;4473304;32;33016;-63
2022/11/17 03:58:54;;;;;;;;;;;;;;;11.17;65.70;98068.06;4472786;32;34030;-63
2022/11/17 04:01:21;;;;;;;;;;;;;;;10.77;67.41;98069.50;4461301;32;34749;-64
2022/11/17 04:03:49;;;;;;;;;;;;;;;11.19;65.68;98068.75;4470040;32;34186;-63
2022/11/17 04:06:16;;;;;;;;;;;;;;;11.86;63.86;98068.88;4461596;32;33124;-66
2022/11/17 04:08:43;;;;;;;;;;;;;;;12.23;62.55;98067.59;4469939;32;34279;-64
2022/11/17 04:16:42;;;;;;;;;;;;;;;11.49;65.36;98055.81;4475914;32;34196;-66
2022/11/17 04:19:10;;;;;;;;;;;;;;;12.03;63.08;98046.44;4468819;32;34053;-65
2022/11/17 04:21:37;;;;;;;;;;;;;;;12.18;62.41;98051.19;4475670;32;35486;-65
2022/11/17 04:24:05;;;;;;;;;;;;;;;12.31;62.03;98052.34;4481894;32;34447;-66
2022/11/17 04:29:18;;;;;;;;;;;;;;;12.56;60.92;98055.06;4470469;32;34056;-64
2022/11/17 04:31:46;;;;;;;;;;;;;;;12.62;60.64;98056.22;4466106;32;32734;-66
2022/11/17 04:34:13;;;;;;;;;;;;;;;12.59;60.33;98043.97;4471942;32;33194;-64
2022/11/17 04:36:44;;;;;;;;;;;;;;;12.38;61.53;98047.16;4476372;32;34615;-66
2022/11/17 04:39:11;;;;;;;;;;;;;;;12.46;61.08;98057.06;4470201;32;33995;-69
2022/11/17 04:42:01;;;;;;;;;;;;;;;12.69;60.06;98054.53;4477742;32;35282;-67
2022/11/17 04:44:30;;;;;;;;;;;;;;;12.48;60.18;98053.19;4485851;32;33976;-68
2022/11/17 04:46:57;;;;;;;;;;;;;;;12.04;61.99;98052.69;4477009;32;34265;-66
2022/11/17 04:49:25;;;;;;;;;;;;;;;12.33;60.60;98060.25;4482434;32;33947;-64
2022/11/17 04:51:52;;;;;;;;;;;;;;;11.84;62.58;98063.66;4471964;32;34173;-68
2022/11/17 04:54:21;;;;;;;;;;;;;;;11.53;62.80;98057.19;4482390;32;35091;-64
2022/11/17 04:56:48;;;;;;;;;;;;;;;11.48;63.40;98059.50;4470434;32;32110;-67
2022/11/17 04:59:15;;;;;;;;;;;;;;;11.87;61.97;98071.38;4480349;32;32703;-64
2022/11/17 05:01:43;;;;;;;;;;;;;;;11.88;61.80;98080.28;4470923;32;32959;-65
2022/11/17 05:04:11;;;;;;;;;;;;;;;11.93;61.68;98085.16;4485062;32;34147;-64
2022/11/17 05:06:40;;;;;;;;;;;;;;;11.99;61.80;98092.53;4475370;32;33264;-66
2022/11/17 05:09:10;;;;;;;;;;;;;;;12.10;61.38;98100.25;4477824;32;34190;-64
2022/11/17 05:14:25;;;;;;;;;;;;;;;12.00;62.11;98096.91;4478304;32;35116;-65
2022/11/17 05:17:04;;;;;;;;;;;;;;;12.16;61.79;98096.94;4474806;32;33635;-65
2022/11/17 05:19:37;;;;;;;;;;;;;;;12.29;61.64;98096.44;4485762;32;34035;-64
2022/11/17 05:23:52;;;;;;;;;;;;;;;12.43;61.26;98098.50;4476855;32;34327;-67
2022/11/17 05:24:54;;;;;;;;;;;;;;;12.56;60.66;98100.69;4470272;32;34172;-65
2022/11/17 05:27:22;;;;;;;;;;;;;;;12.67;60.40;98099.50;4461221;32;31919;-64
2022/11/17 05:29:50;;;;;;;;;;;;;;;12.69;59.76;98092.97;4478875;32;32660;-67
2022/11/17 05:32:17;;;;;;;;;;;;;;;12.70;60.35;98094.63;4469950;32;35238;-64
2022/11/17 05:34:44;;;;;;;;;;;;;;;12.69;60.37;98092.97;4484750;32;34955;-62
2022/11/17 05:37:11;;;;;;;;;;;;;;;12.76;59.65;98090.44;4471742;32;33395;-63
2022/11/17 05:39:39;;;;;;;;;;;;;;;12.52;60.20;98085.88;4480980;32;34158;-65
2022/11/17 05:42:06;;;;;;;;;;;;;;;12.55;60.26;98081.06;4469753;32;34649;-64
2022/11/17 05:44:34;;;;;;;;;;;;;;;12.18;61.30;98083.38;4480456;32;36916;-64
2022/11/17 05:47:01;;;;;;;;;;;;;;;12.49;60.25;98081.72;4479151;32;33461;-64
2022/11/17 05:49:28;;;;;;;;;;;;;;;12.35;60.78;98093.09;4483602;32;34165;-64
2022/11/17 05:51:55;;;;;;;;;;;;;;;12.35;60.81;98096.63;4476881;32;34208;-64
2022/11/17 05:54:23;;;;;;;;;;;;;;;12.19;61.69;98101.13;4481247;32;34831;-65
2022/11/17 05:56:50;;;;;;;;;;;;;;;12.33;61.03;98111.22;4472994;32;32890;-64
2022/11/17 05:59:36;;;;;;;;;;;;;;;12.44;60.52;98102.84;4476573;32;34026;-65
2022/11/17 06:02:09;;;;;;;;;;;;;;;12.43;60.83;98109.22;4476482;32;34394;-66
2022/11/17 06:04:36;;;;;;;;;;;;;;;12.47;60.81;98113.25;4461191;32;35459;-64
2022/11/17 06:07:04;;;;;;;;;;;;;;;12.48;60.77;98125.66;4466373;32;32254;-65
2022/11/17 06:09:32;;;;;;;;;;;;;;;11.99;61.62;98127.41;4459477;32;35624;-67
2022/11/17 06:11:59;;;;;;;;;;;;;;;12.28;61.55;98122.44;4467921;32;34639;-65
2022/11/17 06:14:33;;;;;;;;;;;;;;;11.95;62.57;98124.22;4456331;32;32609;-64
2022/11/17 06:17:19;;;;;;;;;;;;;;;11.94;62.88;98119.84;4473153;32;33027;-63
2022/11/17 06:19:54;;;;;;;;;;;;;;;11.99;62.53;98120.19;4466462;32;32571;-63
2022/11/17 06:22:21;;;;;;;;;;;;;;;12.08;61.84;98107.66;4462278;32;33947;-64
2022/11/17 06:24:48;;;;;;;;;;;;;;;12.26;61.60;98115.56;4474992;32;35186;-66
2022/11/17 06:27:16;;;;;;;;;;;;;;;12.42;61.22;98118.25;4469156;31;31890;-67
2022/11/17 06:29:44;;;;;;;;;;;;;;;12.25;61.73;98117.41;4454668;32;33973;-66
2022/11/17 06:32:12;;;;;;;;;;;;;;;12.43;60.86;98105.69;4472774;32;35227;-65
2022/11/17 06:34:40;;;;;;;;;;;;;;;12.62;60.68;98109.91;4464254;32;34258;-63
2022/11/17 06:37:07;;;;;;;;;;;;;;;12.74;59.58;98105.84;4473762;32;31993;-64
2022/11/17 06:39:34;;;;;;;;;;;;;;;12.83;58.89;98103.00;4475185;32;35033;-64
2022/11/17 06:42:02;;;;;;;;;;;;;;;12.72;58.78;98111.41;4470884;32;34144;-64
2022/11/17 06:44:29;;;;;;;;;;;;;;;12.87;58.33;98119.59;4468648;32;34102;-64
2022/11/17 06:46:56;;;;;;;;;;;;;;;12.63;58.81;98125.00;4472285;32;33140;-68
2022/11/17 06:49:24;;;;;;;;;;;;;;;12.67;58.78;98129.03;4480819;32;33966;-65
2022/11/17 06:51:51;;;;;;;;;;;;;;;11.77;60.87;98137.66;4482466;32;32735;-67
2022/11/17 06:54:19;;;;;;;;;;;;;;;12.01;60.80;98141.50;4471485;32;34040;-67
2022/11/17 06:56:48;;;;;;;;;;;;;;;12.22;60.90;98135.66;4468884;32;33583;-67
2022/11/17 06:59:16;;;;;;;;;;;;;;;12.53;60.47;98130.53;4474523;32;32408;-66
2022/11/17 07:01:43;;;;;;;;;;;;;;;12.98;59.05;98139.94;4477943;32;33913;-66
2022/11/17 07:04:10;;;;;;;;;;;;;;;12.94;58.57;98144.81;4477033;32;34625;-65
2022/11/17 07:06:38;;;;;;;;;;;;;;;13.27;57.53;98148.31;4469779;32;32118;-67
2022/11/17 07:09:05;;;;;;;;;;;;;;;12.89;58.34;98149.81;4473725;32;34838;-67
2022/11/17 07:11:33;;;;;;;;;;;;;;;13.09;58.13;98144.94;4475397;32;33931;-68
2022/11/17 07:14:00;;;;;;;;;;;;;;;13.55;57.33;98145.25;4472149;32;32876;-67
2022/11/17 07:16:29;;;;;;;;;;;;;;;13.34;57.81;98147.63;4468905;32;34381;-67
2022/11/17 07:18:58;;;;;;;;;;;;;;;13.07;58.71;98152.34;4484450;32;34140;-67
2022/11/17 07:21:25;;;;;;;;;;;;;;;12.71;59.66;98147.31;4477341;32;34134;-66
2022/11/17 07:23:52;;;;;;;;;;;;;;;12.42;60.79;98145.09;4471741;32;32269;-66
2022/11/17 07:26:20;;;;;;;;;;;;;;;12.31;61.33;98146.25;4472006;32;33310;-67
2022/11/17 07:28:47;;;;;;;;;;;;;;;12.07;62.40;98148.84;4481229;32;33738;-67
2022/11/17 07:31:15;;;;;;;;;;;;;;;12.03;62.73;98155.56;4474172;32;35352;-69
2022/11/17 07:33:42;;;;;;;;;;;;;;;12.02;63.15;98152.03;4479580;32;32775;-66
2022/11/17 07:36:11;;;;;;;;;;;;;;;12.03;62.88;98160.91;4474596;32;34159;-66
2022/11/17 07:38:38;;;;;;;;;;;;;;;11.93;63.06;98147.66;4467880;32;33919;-66
2022/11/17 07:41:07;;;;;;;;;;;;;;;11.95;63.18;98158.22;4470343;32;32980;-66
2022/11/17 07:43:35;;;;;;;;;;;;;;;12.17;62.63;98167.53;4465987;32;34106;-67
2022/11/17 07:46:03;;;;;;;;;;;;;;;12.33;61.61;98168.41;4469105;32;34372;-67
2022/11/17 07:48:31;;;;;;;;;;;;;;;12.07;62.28;98162.25;4471600;32;34152;-67
2022/11/17 07:50:59;;;;;;;;;;;;;;;11.52;64.51;98163.50;4467996;32;34236;-68
2022/11/17 07:53:26;;;;;;;;;;;;;;;11.65;64.46;98169.28;4473540;32;34270;-68
2022/11/17 07:55:54;;;;;;;;;;;;;;;11.69;64.45;98166.31;4470534;32;33039;-68
2022/11/17 07:58:24;;;;;;;;;;;;;;;11.42;65.17;98157.44;4479066;32;35475;-68
2022/11/17 08:00:52;;;;;;;;;;;;;;;11.42;64.71;98160.94;4467399;32;33013;-67
2022/11/17 08:03:19;;;;;;;;;;;;;;;11.82;63.15;98162.16;4472315;32;33871;-68
2022/11/17 08:05:47;;;;;;;;;;;;;;;11.77;64.29;98159.13;4470754;32;33416;-71
2022/11/17 08:08:14;;;;;;;;;;;;;;;11.86;63.69;98158.19;4468603;32;33984;-70
2022/11/17 08:10:41;;;;;;;;;;;;;;;12.04;63.61;98158.09;4475272;32;33984;-67
2022/11/17 08:13:10;;;;;;;;;;;;;;;12.16;62.60;98152.41;4475131;32;33982;-71
2022/11/17 08:15:37;;;;;;;;;;;;;;;11.99;63.18;98155.03;4470048;32;36483;-66
2022/11/17 08:18:05;;;;;;;;;;;;;;;11.82;64.04;98158.66;4471491;32;34041;-68
2022/11/17 08:20:32;;;;;;;;;;;;;;;11.89;63.65;98162.38;4476406;32;33254;-69
2022/11/17 08:22:59;;;;;;;;;;;;;;;11.95;64.04;98167.09;4469167;32;34150;-69
2022/11/17 08:25:27;;;;;;;;;;;;;;;11.78;64.50;98171.53;4484690;32;33231;-67
2022/11/17 08:27:55;;;;;;;;;;;;;;;11.80;64.93;98177.56;4465943;32;32542;-66
2022/11/17 08:30:22;;;;;;;;;;;;;;;12.14;63.72;98178.56;4477744;32;32955;-66
2022/11/17 08:32:51;;;;;;;;;;;;;;;12.35;62.77;98176.28;4471830;32;34068;-68
2022/11/17 08:35:19;;;;;;;;;;;;;;;12.46;62.26;98184.03;4472934;32;33427;-65
2022/11/17 08:37:47;;;;;;;;;;;;;;;12.63;61.25;98178.69;4475091;32;35026;-67
2022/11/17 08:40:14;;;;;;;;;;;;;;;12.28;62.55;98170.72;4472357;32;35478;-66
2022/11/17 08:42:41;;;;;;;;;;;;;;;12.63;61.21;98184.88;4469718;32;34049;-67
2022/11/17 08:45:09;;;;;;;;;;;;;;;12.45;61.27;98192.22;4475799;32;34376;-66
2022/11/17 08:47:37;;;;;;;;;;;;;;;12.64;60.89;98189.22;4475409;32;34093;-67
2022/11/17 08:50:04;;;;;;;;;;;;;;;12.74;60.98;98197.13;4471773;32;34169;-66
2022/11/17 08:52:32;;;;;;;;;;;;;;;12.64;60.93;98199.12;4474248;32;34100;-65
2022/11/17 08:54:59;;;;;;;;;;;;;;;12.04;63.07;98198.31;4477984;32;33713;-66
2022/11/17 08:57:30;;;;;;;;;;;;;;;12.28;62.87;98205.59;4474097;32;34938;-66
2022/11/17 08:59:57;;;;;;;;;;;;;;;12.56;61.68;98195.44;4469928;32;35506;-68
2022/11/17 09:02:25;;;;;;;;;;;;;;;12.75;61.52;98202.34;4470984;32;34035;-66
2022/11/17 09:04:52;;;;;;;;;;;;;;;12.78;60.33;98198.50;4483596;32;34463;-65
2022/11/17 09:07:19;;;;;;;;;;;;;;;12.95;59.99;98204.72;4474219;32;34177;-65
2022/11/17 09:09:47;;;;;;;;;;;;;;;12.72;59.89;98200.00;4471242;32;34290;-65
2022/11/17 09:12:14;;;;;;;;;;;;;;;12.48;60.52;98200.78;4473124;32;34297;-65
2022/11/17 09:14:42;;;;;;;;;;;;;;;12.61;60.33;98197.63;4441821;32;943823;-68
2022/11/17 09:17:10;;;;;;;;;;;;;;;12.37;61.37;98209.16;4473437;32;34051;-66
2022/11/17 09:19:37;;;;;;;;;;;;;;;12.58;61.48;98219.41;4468330;32;34089;-67
2022/11/17 09:22:05;;;;;;;;;;;;;;;12.82;60.73;98218.63;4472902;32;33194;-65
2022/11/17 09:24:32;;;;;;;;;;;;;;;12.99;60.30;98216.78;4478777;32;32392;-66
2022/11/17 09:27:01;;;;;;;;;;;;;;;13.48;59.15;98214.09;4472290;32;32763;-66
2022/11/17 09:29:29;;;;;;;;;;;;;;;13.47;59.72;98215.13;4468455;32;33798;-65
2022/11/17 09:31:56;;;;;;;;;;;;;;;13.55;59.45;98212.44;4471224;32;34179;-65
2022/11/17 09:34:24;;;;;;;;;;;;;;;13.77;58.43;98210.00;4473548;32;33178;-66
2022/11/17 09:36:51;;;;;;;;;;;;;;;13.78;57.75;98207.16;4475939;32;33257;-66
2022/11/17 09:39:20;;;;;;;;;;;;;;;13.89;57.88;98209.47;4477547;32;34216;-64
2022/11/17 09:41:48;;;;;;;;;;;;;;;14.03;57.60;98207.94;4470991;32;34441;-64
2022/11/17 09:44:18;;;;;;;;;;;;;;;13.45;58.50;98203.69;4470863;32;32148;-64
2022/11/17 09:47:04;;;;;;;;;;;;;;;13.40;58.49;98193.47;4469657;32;34335;-64
2022/11/17 09:49:41;;;;;;;;;;;;;;;13.65;57.93;98196.94;4445619;32;33975;-66
2022/11/17 09:52:11;;;;;;;;;;;;;;;13.92;58.01;98200.22;4476826;32;34675;-64
2022/11/17 09:54:42;;;;;;;;;;;;;;;13.68;59.58;98195.78;4474096;32;34871;-64
2022/11/17 09:57:20;;;;;;;;;;;;;;;13.95;58.34;98192.66;4462995;32;33796;-63
2022/11/17 09:59:48;;;;;;;;;;;;;;;13.61;58.82;98189.38;4463781;32;34278;-65
2022/11/17 10:02:16;;;;;;;;;;;;;;;13.98;58.40;98181.53;4461476;32;34266;-64
2022/11/17 10:04:43;;;;;;;;;;;;;;;14.49;58.32;98177.59;4472406;32;34150;-64
2022/11/17 10:07:11;;;;;;;;;;;;;;;15.12;55.58;98179.19;4477852;32;34173;-63
2022/11/17 10:09:40;;;;;;;;;;;;;;;15.31;54.06;98170.59;4458325;32;33366;-63
2022/11/17 10:12:19;;;;;;;;;;;;;;;15.36;52.76;98181.63;4465337;32;35144;-64
2022/11/17 10:14:49;;;;;;;;;;;;;;;14.94;55.06;98187.56;4463883;32;34589;-65
2022/11/17 10:17:17;;;;;;;;;;;;;;;15.45;53.35;98176.19;4465799;32;34175;-64
2022/11/17 10:19:44;;;;;;;;;;;;;;;15.77;51.67;98177.72;4470943;32;32861;-64
2022/11/17 10:22:15;;;;;;;;;;;;;;;15.71;52.71;98181.16;4467779;32;34944;-65
2022/11/17 10:24:46;;;;;;;;;;;;;;;15.91;52.39;98179.56;4477907;32;33155;-65
2022/11/17 10:27:16;;;;;;;;;;;;;;;15.86;51.87;98183.84;4471345;32;33907;-65
2022/11/17 10:29:57;;;;;;;;;;;;;;;15.37;53.10;98177.91;4472227;32;33923;-70
2022/11/17 10:32:25;;;;;;;;;;;;;;;15.60;52.76;98180.56;4459970;32;34037;-68
2022/11/17 10:34:53;;;;;;;;;;;;;;;15.45;53.40;98177.00;4468485;32;33272;-71
2022/11/17 10:37:25;;;;;;;;;;;;;;;15.60;52.67;98175.19;4469830;32;34058;-68
2022/11/17 10:40:08;;;;;;;;;;;;;;;15.62;52.40;98169.59;4472088;32;33989;-66
2022/11/17 10:42:35;;;;;;;;;;;;;;;15.87;52.42;98174.75;4468568;32;35182;-65
2022/11/17 10:45:03;;;;;;;;;;;;;;;15.53;53.20;98179.59;4470036;32;34402;-64
2022/11/17 10:47:37;;;;;;;;;;;;;;;15.60;54.10;98188.66;4456918;32;34389;-65
2022/11/17 10:50:11;;;;;;;;;;;;;;;15.75;52.59;98182.47;4468668;32;33997;-65
2022/11/17 10:52:38;;;;;;;;;;;;;;;15.98;52.15;98193.97;4477660;32;34748;-64
2022/11/17 10:55:21;;;;;;;;;;;;;;;15.74;52.76;98189.72;4476692;32;34979;-71
2022/11/17 10:57:55;;;;;;;;;;;;;;;15.49;52.98;98189.09;4459239;32;33970;-66
2022/11/17 11:00:24;;;;;;;;;;;;;;;15.67;51.92;98183.41;4469071;32;33151;-67
2022/11/17 11:03:05;;;;;;;;;;;;;;;15.26;52.83;98183.75;4460786;32;35566;-67
2022/11/17 11:05:32;;;;;;;;;;;;;;;15.47;53.08;98179.50;4468483;32;33815;-67
2022/11/17 11:08:13;;;;;;;;;;;;;;;15.64;54.11;98183.72;4467771;32;34818;-66
2022/11/17 11:10:41;;;;;;;;;;;;;;;15.35;53.64;98173.75;4458739;32;34538;-66
2022/11/17 11:13:11;;;;;;;;;;;;;;;15.10;53.61;98173.13;4475460;32;34201;-67
2022/11/17 11:15:39;;;;;;;;;;;;;;;15.67;52.49;98161.00;4480785;32;32591;-65
2022/11/17 11:18:10;;;;;;;;;;;;;;;15.19;53.73;98160.44;4468326;32;34736;-65
2022/11/17 11:20:58;;;;;;;;;;;;;;;15.26;52.84;98155.97;4464040;32;32764;-64
2022/11/17 11:23:30;;;;;;;;;;;;;;;15.24;53.05;98171.47;4443795;32;33544;-65
2022/11/17 11:26:10;;;;;;;;;;;;;;;15.07;52.98;98173.50;4465998;32;34533;-65
2022/11/17 11:28:38;;;;;;;;;;;;;;;15.65;51.44;98171.09;4453116;32;35256;-65
2022/11/17 11:31:32;;;;;;;;;;;;;;;15.18;52.08;98183.81;4462518;32;33778;-64
2022/11/17 11:34:04;;;;;;;;;;;;;;;15.25;51.95;98175.84;4480783;32;33103;-64
2022/11/17 11:36:51;;;;;;;;;;;;;;;15.15;52.80;98173.41;4473682;32;34112;-65
2022/11/17 11:39:34;;;;;;;;;;;;;;;15.19;52.54;98173.91;4469708;32;34238;-65
2022/11/17 11:42:01;;;;;;;;;;;;;;;15.57;51.85;98182.81;4472760;32;34212;-66
2022/11/17 11:44:46;;;;;;;;;;;;;;;15.72;51.47;98174.72;4470142;32;34220;-68
2022/11/17 11:47:32;;;;;;;;;;;;;;;14.51;54.60;98183.66;4477559;32;33320;-68
2022/11/17 11:50:12;;;;;;;;;;;;;;;15.27;52.89;98173.81;4474913;32;32839;-67
2022/11/17 11:52:39;;;;;;;;;;;;;;;15.27;52.14;98166.56;4445119;32;32868;-69
2022/11/17 11:55:26;;;;;;;;;;;;;;;15.31;52.41;98164.34;4465215;32;34778;-68
2022/11/17 11:57:59;;;;;;;;;;;;;;;15.65;50.88;98168.38;4469516;32;34287;-66
2022/11/17 12:00:26;;;;;;;;;;;;;;;15.59;50.83;98165.38;4461542;32;32490;-66
2022/11/17 12:03:17;;;;;;;;;;;;;;;15.58;51.11;98169.13;4469724;32;34429;-67
2022/11/17 12:05:44;;;;;;;;;;;;;;;15.66;51.76;98170.03;4475163;32;33944;-66
2022/11/17 12:08:27;;;;;;;;;;;;;;;15.92;51.27;98165.06;4468267;32;33109;-65
2022/11/17 12:11:58;;;;;;;;;;;;;;;16.07;50.61;98173.97;4472780;32;34388;-67
2022/11/17 12:13:51;;;;;;;;;;;;;;;15.43;52.88;98176.34;4476158;32;35028;-64
2022/11/17 12:16:27;;;;;;;;;;;;;;;15.63;51.85;98170.41;4467505;32;34983;-66
2022/11/17 12:18:55;;;;;;;;;;;;;;;15.76;51.54;98159.84;4478519;32;33335;-65
2022/11/17 12:21:23;;;;;;;;;;;;;;;15.80;51.42;98161.16;4468849;32;33001;-65
2022/11/17 12:24:07;;;;;;;;;;;;;;;15.28;52.63;98168.25;4474502;32;35402;-71
2022/11/17 12:26:35;;;;;;;;;;;;;;;15.84;51.49;98174.09;4457622;32;34280;-65
2022/11/17 12:29:20;;;;;;;;;;;;;;;16.18;50.18;98175.38;4471189;32;33970;-65
2022/11/17 12:31:48;;;;;;;;;;;;;;;16.13;50.61;98171.56;4465343;32;32616;-65
2022/11/17 12:34:21;;;;;;;;;;;;;;;16.27;49.98;98176.06;4474776;32;34322;-65
2022/11/17 12:37:21;;;;;;;;;;;;;;;16.10;50.22;98182.72;4471343;32;34222;-65
2022/11/17 12:39:59;;;;;;;;;;;;;;;16.16;51.16;98173.88;4431726;32;34262;-66
2022/11/17 12:42:27;;;;;;;;;;;;;;;16.38;49.06;98175.59;4458372;32;34573;-68
2022/11/17 12:44:55;;;;;;;;;;;;;;;16.23;50.17;98180.19;4457011;32;33540;-74
2022/11/17 12:47:23;;;;;;;;;;;;;;;15.90;50.21;98172.50;4472127;32;33135;-67
2022/11/17 12:49:51;;;;;;;;;;;;;;;16.09;51.04;98176.50;4477175;32;33282;-68
2022/11/17 12:52:44;;;;;;;;;;;;;;;16.35;49.11;98175.97;4479038;32;33149;-67
2022/11/17 12:55:27;;;;;;;;;;;;;;;15.95;51.03;98180.03;4449644;32;35292;-67
2022/11/17 12:58:14;;;;;;;;;;;;;;;16.22;49.33;98170.44;4471118;32;34219;-67
2022/11/17 13:00:51;;;;;;;;;;;;;;;16.16;49.63;98176.56;4435017;32;34699;-67
2022/11/17 13:03:25;;;;;;;;;;;;;;;16.32;49.47;98170.97;4458087;32;34400;-66
2022/11/17 13:06:08;;;;;;;;;;;;;;;16.33;49.46;98178.03;4458644;32;34497;-66
2022/11/17 13:08:59;;;;;;;;;;;;;;;16.34;49.57;98174.31;4467013;32;34034;-65
2022/11/17 13:11:27;;;;;;;;;;;;;;;16.24;49.62;98189.94;4478248;32;34462;-65
2022/11/17 13:14:07;;;;;;;;;;;;;;;16.36;49.47;98198.41;4460255;32;34261;-67
2022/11/17 13:16:36;;;;;;;;;;;;;;;16.14;49.73;98192.13;4460658;32;32730;-67
2022/11/17 13:19:20;;;;;;;;;;;;;;;16.29;49.85;98188.38;4464027;32;35453;-66
2022/11/17 13:21:48;;;;;;;;;;;;;;;16.15;49.77;98183.84;4456654;32;33389;-66
2022/11/17 13:24:26;;;;;;;;;;;;;;;16.21;50.18;98191.19;4474449;32;35174;-66
2022/11/17 13:26:58;;;;;;;;;;;;;;;16.37;49.53;98197.38;4467177;32;34489;-65
2022/11/17 13:29:25;;;;;;;;;;;;;;;16.52;49.20;98193.63;4472086;32;35107;-66